Date,TemperatureHighF,TemperatureAvgF,TemperatureLowF,DewpointHighF,DewpointAvgF,DewpointLowF,HumidityHigh,HumidityAvg,HumidityLow,PressureMaxIn,PressureMinIn,WindSpeedMaxMPH,WindSpeedAvgMPH,GustSpeedMaxMPH,PrecipitationSumIn
2013-1-5,41.1,36.3,34.3,21.5,19.8,16.6,56,51,41,30.31,30.18,13,4,14,0.05
2013-1-6,38.6,35.7,33.3,29.1,26.6,20.6,83,69,51,30.18,30.03,12,3,12,0.03
2013-1-7,34.8,31.3,28.3,28.8,25.0,23.2,86,77,65,30.44,30.14,16,4,17,0.00
2013-1-8,49.4,40.6,32.7,29.7,25.3,19.7,74,56,33,30.42,30.33,15,3,17,0.00
2013-1-9,54.5,45.8,39.7,43.2,32.7,23.4,83,61,42,30.37,30.23,18,4,18,0.00
2013-1-10,50.7,40.1,34.1,30.2,27.2,20.5,76,61,32,30.58,30.36,15,5,16,0.00
2013-1-11,51.3,40.5,33.4,48.8,35.3,25.8,98,82,63,30.44,30.08,25,8,31,0.02
2013-1-12,66.8,58.1,50.5,54.6,50.8,48.0,93,77,58,30.13,30.02,10,2,10,0.00
2013-1-13,65.9,59.2,53.8,55.4,53.8,50.2,96,83,60,30.02,29.88,31,7,32,0.01
2013-1-14,60.1,45.4,31.7,55.4,41.6,31.0,97,87,78,30.25,29.90,13,3,17,0.35
2013-1-15,32.0,31.1,29.2,31.5,30.4,28.7,98,97,95,30.34,30.13,9,1,10,0.06
2013-1-16,40.1,33.5,28.0,38.2,32.7,27.3,99,97,88,30.14,29.85,13,2,13,0.33
2013-1-17,37.2,32.3,29.0,35.9,27.8,22.8,95,84,63,30.12,29.99,13,3,14,0.00
2013-1-18,32.7,28.3,21.3,25.5,15.5,8.9,87,60,39,30.47,30.08,13,3,15,0.00
2013-1-19,54.4,42.9,32.7,25.6,18.6,13.0,52,38,21,30.38,29.91,16,3,16,0.00
2013-1-20,49.4,39.8,27.4,29.1,16.7,4.4,59,40,22,30.03,29.80,17,5,21,0.00
2013-1-21,39.7,26.9,17.6,16.9,11.3,6.8,76,53,29,30.04,29.81,18,3,21,0.00
2013-1-22,17.5,10.4,5.8,7.8,-2.4,-5.3,68,56,42,30.28,29.91,21,4,21,0.00
2013-1-23,18.0,12.0,5.9,10.2,-0.1,-2.7,90,59,41,30.34,30.13,15,3,15,0.00
2013-1-24,18.2,12.4,9.3,11.2,7.4,1.4,90,80,65,30.54,30.09,12,3,14,0.02
2013-1-25,16.0,12.4,8.6,14.0,7.0,0.2,92,79,62,30.54,30.08,14,4,16,0.00
2013-1-26,25.0,21.3,15.7,23.2,19.1,13.8,94,91,84,30.46,30.09,9,2,9,0.00
2013-1-27,30.6,23.6,15.8,22.0,17.1,12.4,87,76,64,30.60,30.45,11,4,12,0.00
2013-1-28,52.2,39.9,26.1,48.3,36.5,21.3,98,88,80,30.45,30.09,15,5,15,0.01
2013-1-29,66.8,57.4,50.5,54.9,50.9,47.2,96,80,60,30.10,29.89,21,5,24,0.02
2013-1-30,63.4,55.7,51.0,58.1,53.0,49.5,99,91,75,29.89,29.21,42,9,42,1.08
2013-1-31,51.3,30.2,22.0,51.0,23.9,12.3,99,78,58,29.84,29.13,33,7,33,0.15
2013-2-1,23.6,15.2,8.0,19.7,8.8,1.7,93,75,61,30.37,29.80,22,4,26,0.00
2013-2-2,23.8,16.1,7.9,21.2,9.5,1.4,93,75,64,30.37,30.05,17,4,17,0.00
2013-2-3,30.6,24.1,18.5,23.3,19.9,10.9,95,84,67,30.05,29.82,20,3,24,0.03
2013-2-4,32.1,23.7,16.1,28.9,17.0,10.0,95,76,59,30.08,29.90,18,4,25,0.00
2013-2-5,36.4,33.9,32.0,34.7,31.3,28.1,96,90,84,29.93,29.84,10,2,10,0.01
2013-2-6,33.5,30.3,25.4,31.7,27.0,22.8,96,87,77,30.32,29.92,14,4,16,0.00
2013-2-7,30.2,26.7,22.5,25.7,23.0,19.2,93,86,78,30.40,30.17,19,8,21,0.00
2013-2-8,34.3,29.5,24.1,33.8,27.6,20.3,98,93,82,30.17,29.80,20,5,20,0.02
2013-2-9,34.4,26.1,21.8,20.5,16.6,12.5,86,68,46,30.41,29.93,18,6,23,0.00
2013-2-10,40.4,32.1,24.3,27.0,14.4,7.4,78,48,38,30.43,30.17,22,8,24,0.01
2013-2-11,60.5,46.3,31.9,48.3,33.9,19.0,97,67,25,30.17,29.73,27,7,27,0.01
2013-2-12,51.3,40.8,34.5,26.1,21.9,16.3,63,48,26,29.95,29.78,24,5,30,0.00
2013-2-13,38.9,33.5,29.7,29.7,24.9,16.6,97,73,40,29.93,29.63,15,2,16,0.00
2013-2-14,42.1,33.6,24.5,31.4,26.3,22.2,97,76,57,30.02,29.78,12,2,15,0.22
2013-2-15,49.1,37.3,28.8,34.4,29.9,25.9,97,76,50,30.03,29.93,10,3,11,0.01
2013-2-16,29.0,25.5,18.4,28.3,21.8,12.4,97,86,72,29.97,29.85,10,2,11,0.04
2013-2-17,20.6,16.6,13.7,12.8,9.5,6.0,89,73,61,30.23,29.85,23,4,23,0.00
2013-2-18,38.4,26.2,12.2,20.6,10.8,3.0,74,54,27,30.40,30.13,24,6,28,0.01
2013-2-19,46.7,36.4,27.4,37.4,27.2,19.0,91,70,49,30.13,29.69,27,7,32,0.02
2013-2-20,29.7,22.7,15.3,19.4,13.2,8.4,75,67,52,30.14,29.80,20,6,29,0.00
2013-2-21,31.9,21.4,14.8,17.0,12.8,8.3,78,70,52,30.36,30.10,16,5,18,0.00
2013-2-22,26.3,23.1,20.7,25.3,19.4,13.8,96,86,68,30.38,30.18,20,6,20,0.00
2013-2-23,45.1,35.2,25.2,38.5,33.0,24.2,98,92,74,30.18,29.83,12,3,13,0.01
2013-2-24,43.8,32.8,22.9,34.5,26.3,16.2,98,79,44,30.11,29.81,15,5,16,0.00
2013-2-25,38.1,29.3,21.5,20.7,18.7,16.6,84,66,45,30.23,30.10,15,4,15,0.00
2013-2-26,34.3,30.1,26.7,33.8,25.7,18.8,98,84,61,30.20,29.67,24,8,25,0.00
2013-2-27,43.2,36.2,31.6,39.2,32.2,29.6,99,86,69,29.72,29.59,14,2,17,0.37
2013-2-28,34.8,31.6,29.2,30.6,26.4,23.5,91,81,71,29.73,29.62,15,4,15,0.00
2013-3-1,32.9,29.0,24.7,27.3,24.4,20.8,91,83,70,29.91,29.73,14,3,14,0.00
2013-3-2,28.2,24.1,21.7,22.4,19.6,17.3,92,83,71,29.90,29.83,13,3,13,0.00
2013-3-3,28.7,23.6,20.4,18.2,16.8,14.1,86,75,61,29.94,29.83,18,5,18,0.00
2013-3-4,36.4,25.7,17.1,16.3,14.1,10.9,81,62,41,30.08,29.93,20,6,20,0.00
2013-3-5,43.2,34.2,27.0,27.6,17.8,10.2,96,53,30,30.08,29.72,32,7,32,0.01
2013-3-6,30.7,28.3,26.5,30.2,27.5,25.5,98,97,96,30.07,29.66,25,3,25,0.00
2013-3-7,35.9,31.5,29.0,32.9,28.4,25.9,97,88,76,30.21,30.05,16,5,16,0.34
2013-3-8,34.7,29.4,26.3,28.2,25.1,23.0,92,84,76,30.37,30.17,18,6,18,0.01
2013-3-9,50.7,37.9,25.3,26.1,21.5,12.2,89,57,22,30.41,30.31,11,4,11,0.00
2013-3-10,55.0,47.6,41.3,29.6,21.9,13.8,42,36,30,30.31,30.14,22,8,25,0.00
2013-3-11,51.8,47.9,42.4,46.6,30.3,18.6,87,53,31,30.15,29.81,23,10,27,0.00
2013-3-12,51.7,42.5,31.9,49.5,38.8,25.8,98,87,70,29.92,29.73,27,7,27,0.34
2013-3-13,39.6,31.2,24.4,28.5,22.9,15.8,89,72,47,30.04,29.88,22,5,22,0.00
2013-3-14,35.9,28.1,21.6,19.4,16.5,13.4,85,62,46,30.15,30.02,16,6,21,0.00
2013-3-15,51.7,38.7,27.3,33.0,24.0,15.0,67,56,42,30.11,29.83,16,5,16,0.00
2013-3-16,48.7,41.7,36.7,43.6,37.2,32.2,97,84,67,29.87,29.62,15,4,16,0.02
2013-3-17,36.6,30.9,27.7,35.6,27.9,23.3,98,89,77,30.24,29.87,11,1,11,0.00
2013-3-18,28.2,26.3,24.5,27.5,25.3,23.5,97,96,86,30.26,29.90,20,6,21,0.00
2013-3-19,47.2,36.1,27.7,37.5,25.4,9.9,99,71,29,29.92,29.78,23,3,27,0.15
2013-3-20,43.2,32.9,25.6,26.8,15.9,11.3,94,51,28,29.97,29.78,18,4,20,0.00
2013-3-21,26.3,21.8,18.6,24.6,14.4,10.1,94,73,58,29.91,29.76,18,4,18,0.00
2013-3-22,39.9,28.0,19.3,21.0,16.1,10.6,75,62,42,30.03,29.89,16,5,18,0.00
2013-3-23,47.4,34.9,26.4,23.0,19.4,16.9,70,55,32,30.05,29.94,12,3,13,0.00
2013-3-24,31.6,28.1,26.1,25.5,21.5,14.5,96,77,56,29.99,29.61,14,4,14,0.00
2013-3-25,32.3,28.5,26.1,31.8,27.8,25.1,98,97,96,29.72,29.53,15,2,17,0.17
2013-3-26,34.8,30.4,26.8,32.3,28.7,26.0,97,93,86,30.05,29.71,10,2,14,0.17
2013-3-27,35.0,30.4,26.3,29.7,26.6,23.0,92,86,76,30.16,30.02,16,4,17,0.00
2013-3-28,36.7,32.4,29.2,29.6,27.3,24.7,87,81,74,30.26,30.11,12,4,14,0.00
2013-3-29,45.1,37.6,32.1,33.0,27.9,23.6,85,69,47,30.28,30.17,11,2,13,0.00
2013-3-30,53.0,42.8,33.6,29.4,23.7,17.4,67,48,30,30.24,30.08,11,2,12,0.00
2013-3-31,45.8,42.8,38.6,45.2,35.9,23.8,98,79,46,30.09,29.74,17,6,19,0.13
2013-4-1,50.0,41.4,30.7,41.6,32.7,17.0,86,71,55,29.96,29.76,21,3,21,0.01
2013-4-2,42.9,32.8,26.5,17.6,13.6,7.8,61,46,30,30.18,29.95,13,3,13,0.00
2013-4-3,44.7,32.9,26.0,16.6,13.7,10.2,60,46,26,30.38,30.18,14,4,14,0.00
2013-4-4,41.9,31.8,22.6,30.7,12.3,2.8,92,46,27,30.38,30.05,18,5,18,0.00
2013-4-5,59.1,44.4,33.0,35.3,28.4,20.6,95,59,27,30.06,29.87,13,3,13,0.01
2013-4-6,49.9,39.0,27.4,22.4,17.2,6.0,76,45,19,30.29,30.05,17,5,17,0.00
2013-4-7,64.1,51.4,39.5,41.3,33.4,18.3,62,50,37,30.21,29.98,22,7,23,0.00
2013-4-8,72.9,64.5,55.9,44.2,41.7,38.8,57,44,32,30.06,29.91,19,4,20,0.00
2013-4-9,80.8,69.1,57.9,52.6,49.0,43.7,68,50,33,30.06,29.90,20,4,20,0.00
2013-4-10,86.2,74.6,64.7,55.8,50.0,45.2,60,43,28,29.93,29.76,16,3,21,0.00
2013-4-11,78.5,68.5,59.8,56.0,52.6,49.6,79,58,38,29.83,29.65,22,5,23,0.00
2013-4-12,70.3,57.1,45.2,61.0,50.0,35.3,99,80,45,29.71,29.51,18,6,20,0.38
2013-4-13,64.3,50.9,42.0,35.6,31.1,23.6,71,49,25,29.95,29.71,20,4,20,0.00
2013-4-14,64.1,50.6,37.3,37.5,33.7,27.0,82,54,30,30.11,29.95,22,5,22,0.00
2013-4-15,57.6,51.3,47.8,49.1,44.8,36.9,98,79,56,30.22,30.06,22,9,23,0.01
2013-4-16,70.6,59.1,48.0,57.3,53.4,47.5,99,83,61,30.24,30.09,21,7,24,0.02
2013-4-17,67.0,60.6,56.4,59.8,56.3,53.1,97,86,73,30.19,30.09,20,4,22,0.14
2013-4-18,67.1,59.7,54.0,61.0,55.5,53.0,99,87,67,30.15,29.90,22,9,23,0.00
2013-4-19,66.8,58.5,43.2,60.8,53.6,37.2,97,84,73,29.91,29.54,32,9,35,0.86
2013-4-20,53.7,42.8,34.2,38.1,27.4,22.6,82,56,34,30.35,29.71,20,4,24,0.00
2013-4-21,47.7,37.7,28.3,24.9,22.9,18.6,77,56,37,30.57,30.34,15,3,15,0.00
2013-4-22,49.2,40.7,32.4,32.9,28.5,21.9,86,62,46,30.55,30.38,19,7,19,0.00
2013-4-23,53.7,43.4,34.1,41.9,37.2,31.2,91,79,63,30.38,30.10,16,5,16,0.00
2013-4-24,71.5,57.6,43.9,56.0,46.9,37.7,89,69,46,30.10,29.76,28,6,34,0.10
2013-4-25,59.1,46.4,35.2,38.1,28.9,17.9,84,55,25,30.31,29.95,15,3,17,0.00
2013-4-26,59.4,48.4,36.7,34.7,31.9,26.6,83,54,34,30.45,30.30,11,3,13,0.00
2013-4-27,63.9,54.7,46.8,40.1,36.2,30.1,60,50,39,30.39,30.22,15,6,17,0.00
2013-4-28,54.1,48.4,45.3,46.8,43.4,39.0,98,84,57,30.23,30.07,22,8,22,0.18
2013-4-29,55.1,49.1,45.5,54.7,48.4,43.9,99,98,89,30.09,30.01,16,6,16,0.07
2013-4-30,53.4,49.9,46.3,53.3,49.7,46.0,100,99,99,30.27,30.08,21,4,21,0.06
2013-5-1,62.4,53.1,45.8,46.2,38.7,28.1,100,63,32,30.39,30.27,15,6,17,0.00
2013-5-2,61.7,52.2,43.1,44.7,40.7,32.5,89,66,35,30.39,30.29,20,6,20,0.00
2013-5-3,60.4,51.3,43.0,46.8,41.5,34.2,97,70,52,30.34,30.25,21,7,22,0.00
2013-5-4,59.4,47.7,37.8,45.2,39.6,34.5,98,75,50,30.28,30.17,18,8,21,0.00
2013-5-5,56.2,47.1,37.6,40.2,37.6,33.5,96,71,50,30.20,30.11,21,8,21,0.00
2013-5-6,52.7,46.6,41.9,52.4,45.8,40.0,99,97,85,30.15,30.03,20,6,22,0.08
2013-5-7,55.2,53.1,49.4,55.2,52.9,49.4,100,99,99,30.04,29.89,21,5,21,0.75
2013-5-8,58.9,50.9,48.1,56.8,49.6,45.9,100,96,74,29.99,29.91,9,2,9,0.28
2013-5-9,66.3,58.1,49.5,60.0,52.2,47.3,94,81,65,30.03,29.90,10,3,10,0.10
2013-5-10,73.8,64.6,57.5,59.6,54.0,50.5,98,70,48,30.02,29.82,17,4,17,0.04
2013-5-11,69.8,60.9,54.9,61.6,55.2,49.2,98,82,64,29.83,29.70,17,3,17,0.02
2013-5-12,56.2,49.0,41.0,49.4,34.1,24.8,84,58,34,30.00,29.73,15,4,23,0.02
2013-5-13,52.9,43.0,36.7,32.2,27.4,19.8,72,55,32,30.17,29.98,12,3,14,0.00
2013-5-14,61.7,47.3,35.7,38.3,31.4,26.1,75,56,31,30.20,30.02,12,3,15,0.01
2013-5-15,88.3,70.1,50.4,58.0,48.9,37.0,70,49,27,30.02,29.70,16,4,21,0.01
2013-5-16,72.5,66.2,60.2,60.0,54.3,48.0,86,67,43,29.93,29.70,18,5,18,0.00
2013-5-17,75.5,65.7,56.6,58.6,54.7,50.2,92,69,43,30.08,29.92,12,3,12,0.00
2013-5-18,64.9,58.1,54.7,58.4,55.6,52.7,99,92,76,30.15,30.05,14,4,16,0.01
2013-5-19,61.3,57.0,53.7,61.3,56.8,53.4,100,99,99,30.17,30.06,11,4,11,0.00
2013-5-20,76.8,66.6,59.9,68.8,63.5,59.9,100,90,67,30.10,29.95,11,3,12,0.00
2013-5-21,81.8,72.3,63.6,69.5,64.4,60.3,91,77,58,29.95,29.81,12,2,12,0.00
2013-5-22,83.3,74.0,63.2,65.8,59.6,53.6,93,62,42,29.88,29.78,12,2,15,0.00
2013-5-31,72.5,71.7,70.9,61.7,61.5,61.3,72,70,68,30.00,29.98,10,3,11,0.00
2013-6-1,82.0,74.7,68.8,67.2,62.6,59.2,75,66,50,29.99,29.85,21,4,22,0.00
2013-6-2,76.3,69.6,62.4,67.3,61.9,58.7,96,77,67,29.85,29.79,12,2,14,0.00
2013-6-3,72.4,62.9,55.4,65.0,58.9,52.2,97,87,71,29.95,29.81,10,1,11,0.00
2013-6-4,69.6,58.0,46.7,52.1,46.3,41.3,93,67,40,30.13,29.95,5,1,6,0.00
2013-6-5,70.6,63.3,58.8,58.4,52.0,44.5,83,67,57,30.13,29.99,15,4,15,0.00
2013-6-6,61.4,57.8,54.3,59.8,56.0,52.4,99,94,84,30.00,29.82,15,5,21,0.00
2013-6-7,63.5,60.6,58.9,63.5,60.5,58.6,100,100,99,29.82,29.63,12,1,13,0.00
2013-6-8,74.5,62.2,54.1,63.8,58.6,54.1,100,89,64,30.09,29.73,9,1,10,0.00
2013-6-9,68.0,63.9,59.2,66.0,60.7,55.2,99,89,81,30.15,30.05,13,3,14,0.00
2013-6-10,70.1,64.3,62.7,70.1,63.6,59.3,100,98,88,30.06,29.77,12,4,14,0.00
2013-6-11,73.8,65.6,60.2,66.7,60.6,56.9,90,84,69,29.85,29.77,11,2,13,0.20
2013-6-12,81.0,72.0,64.8,68.6,64.2,60.2,87,77,62,29.87,29.77,10,2,14,0.00
2013-6-13,75.5,65.7,56.9,68.2,61.7,54.4,98,87,69,29.77,29.45,17,3,19,1.01
2013-6-14,70.9,60.5,53.1,58.7,53.4,50.8,93,78,54,30.01,29.61,6,1,11,0.01
2013-6-15,76.5,65.2,56.6,59.6,53.1,47.7,89,67,40,30.08,29.99,7,1,7,0.00
2013-6-16,73.8,67.9,64.1,64.1,58.0,50.7,79,71,61,30.02,29.87,10,2,11,0.00
2013-6-17,80.0,71.2,65.1,68.1,63.3,58.6,87,77,61,29.94,29.86,11,1,14,0.00
2013-6-18,69.7,65.6,59.5,65.9,63.1,58.9,99,92,81,29.89,29.76,7,1,8,1.37
2013-6-19,68.1,61.4,57.1,62.2,59.2,56.8,99,93,75,30.13,29.86,6,1,7,0.00
2013-6-20,71.7,65.0,60.3,67.0,61.7,58.6,96,89,79,30.21,30.13,12,3,14,0.00
2013-6-21,74.3,67.0,60.3,66.0,61.5,58.3,96,83,70,30.25,30.18,11,3,11,0.00
2013-6-22,79.0,70.3,62.1,68.1,61.1,53.9,85,73,57,30.22,30.09,14,3,14,0.00
2013-6-23,79.2,71.0,64.5,70.6,64.7,57.6,94,81,58,30.14,30.05,8,1,9,0.00
2013-6-24,84.8,73.6,69.3,69.6,65.3,61.8,87,76,51,30.11,30.00,15,1,20,0.00
2013-6-25,84.3,75.1,68.7,71.1,66.0,58.5,86,74,53,30.02,29.88,9,2,9,0.00
2013-6-26,82.5,71.7,65.3,70.6,65.7,60.2,94,82,61,29.89,29.80,8,1,10,0.04
2013-6-27,75.6,70.7,66.6,70.1,65.3,62.1,92,83,76,29.81,29.60,11,2,11,0.00
2013-6-28,80.2,70.0,64.7,69.4,63.4,57.5,92,80,60,29.61,29.46,11,2,13,0.01
2013-6-29,79.3,69.2,62.2,62.7,58.8,55.3,90,70,49,29.68,29.49,12,2,12,0.13
2013-6-30,78.0,71.1,67.0,70.7,65.0,58.0,92,81,68,29.80,29.66,12,2,23,0.01
2013-7-1,74.5,68.6,65.5,69.8,66.3,63.6,98,92,84,29.92,29.78,11,3,11,0.03
2013-7-2,76.0,69.0,66.3,70.2,66.5,64.2,99,92,78,30.10,29.92,16,5,16,0.00
2013-7-3,76.3,69.1,66.5,71.6,67.1,64.8,99,93,84,30.18,30.08,14,5,16,0.02
2013-7-4,80.7,72.9,67.2,71.9,67.9,65.8,96,85,69,30.21,30.11,16,5,18,0.00
2013-7-5,80.0,73.8,67.4,71.6,68.0,65.2,95,83,69,30.17,30.08,14,4,17,0.00
2013-7-6,83.6,75.6,70.3,71.6,66.9,63.9,88,75,59,30.16,30.02,15,2,15,0.00
2013-7-7,81.0,73.5,65.6,72.0,66.7,63.8,96,80,72,30.06,29.96,12,2,17,0.30
2013-7-14,79.2,74.2,67.8,70.8,68.1,65.5,100,82,70,30.32,30.26,12,3,14,0.02
2013-7-15,85.5,76.6,69.5,72.8,68.2,64.9,88,76,58,30.30,30.19,9,1,9,0.00
2013-7-16,85.8,77.2,70.5,74.6,69.8,66.0,90,78,66,30.24,30.16,5,1,5,0.00
2013-7-17,86.0,77.4,70.6,75.2,70.7,67.9,93,81,63,30.22,30.08,5,1,5,0.00
2013-7-18,88.5,78.6,71.2,74.8,71.6,68.8,92,80,55,30.11,29.99,5,1,5,0.00
2013-7-19,88.0,78.5,70.4,76.6,70.7,64.8,88,77,63,30.00,29.85,9,1,9,0.31
2013-7-20,84.6,76.1,71.0,73.0,68.3,63.9,89,77,64,29.87,29.78,12,2,12,0.00
2013-7-21,80.5,71.2,67.1,70.4,65.1,61.4,98,82,62,29.92,29.85,12,1,13,0.43
2013-7-22,77.4,70.3,65.8,72.9,67.5,63.0,98,91,81,29.92,29.72,14,2,14,0.87
2013-8-2,77.0,71.7,64.5,65.3,60.2,56.5,88,68,51,29.96,29.92,9,1,10,0.00
2013-8-3,68.1,65.1,60.5,65.1,60.4,56.5,98,85,68,29.94,29.90,11,1,12,0.28
2013-8-4,72.5,63.0,56.2,63.4,57.5,52.6,99,84,55,30.03,29.92,8,0,10,0.01
2013-8-5,72.6,62.6,54.0,57.6,54.0,49.4,92,75,45,30.09,29.99,7,1,8,0.00
2013-8-6,70.3,63.8,58.0,66.4,61.2,56.6,99,91,80,30.02,29.95,10,2,10,0.54
2013-8-7,75.2,66.3,62.6,71.8,65.3,62.3,99,97,82,30.02,29.96,15,3,15,0.28
2013-8-8,74.0,69.2,66.3,71.9,68.2,65.5,99,97,90,30.00,29.91,14,3,18,0.07
2013-8-9,75.8,70.9,67.5,71.9,68.8,66.7,98,93,83,29.95,29.87,14,2,15,0.05
2013-8-10,77.0,69.2,65.0,68.7,65.1,60.8,99,88,68,30.07,29.94,5,0,5,0.04
2013-8-11,77.2,70.8,65.6,70.6,65.7,61.5,92,84,76,30.07,29.97,7,1,7,0.00
2013-8-12,80.3,72.0,66.2,70.0,66.0,63.5,93,82,60,30.00,29.86,8,1,8,0.00
2013-8-13,77.8,68.3,60.9,69.3,64.7,57.4,98,89,70,29.87,29.73,9,2,11,0.35
2013-8-14,67.3,57.6,49.5,57.5,50.8,46.0,91,79,59,30.11,29.80,10,1,12,0.00
2013-8-15,67.3,58.7,50.2,53.2,50.1,46.6,95,75,51,30.19,30.10,7,2,7,0.00
2013-8-16,70.8,63.1,57.8,59.2,53.3,49.9,79,71,55,30.17,30.10,8,2,8,0.00
2013-8-17,69.2,62.5,56.7,59.4,55.6,49.8,85,78,69,30.25,30.16,10,2,13,0.00
2013-8-18,61.2,58.0,54.5,59.7,56.3,49.3,99,94,82,30.23,30.17,11,1,11,0.21
2013-8-19,72.5,64.8,58.3,68.4,63.2,58.0,99,94,85,30.17,30.05,5,0,8,0.00
2013-8-20,77.8,69.6,63.0,67.2,64.3,61.8,99,84,63,30.17,30.07,6,1,6,0.00
2013-8-21,79.3,71.1,66.3,71.0,65.7,59.4,96,83,71,30.16,30.03,9,1,10,0.04
2013-8-22,79.3,69.6,64.7,69.9,64.4,61.6,96,84,68,30.06,29.94,7,2,7,0.00
2013-8-23,68.8,64.1,60.2,64.0,61.7,55.8,99,92,81,30.12,29.92,9,1,10,1.12
2013-8-24,71.3,63.7,58.8,63.8,58.0,54.4,97,82,62,30.32,30.11,7,1,7,0.00
2013-8-25,73.1,65.5,60.3,63.7,58.6,54.5,88,79,62,30.37,30.24,8,2,9,0.00
2013-8-26,79.3,70.0,63.3,65.2,60.4,56.1,82,72,56,30.26,29.99,7,2,8,0.00
2013-8-27,75.3,71.1,68.3,69.9,66.1,60.3,90,84,75,29.99,29.88,12,2,14,0.00
2013-8-28,72.9,68.7,63.2,71.1,66.9,61.8,99,94,86,29.91,29.77,12,1,12,0.37
2013-8-29,75.0,69.1,65.5,70.0,67.2,65.2,99,94,80,30.00,29.83,4,0,6,0.10
2013-8-30,79.3,72.0,65.9,70.8,66.2,61.5,93,82,69,29.99,29.84,10,2,11,0.00
2013-8-31,80.8,73.9,68.9,71.9,67.5,65.1,92,81,66,29.85,29.77,7,1,7,0.00
2013-9-1,80.3,72.2,66.8,72.9,67.4,64.0,92,85,71,29.82,29.73,7,1,7,0.00
2013-9-2,82.7,73.2,65.7,70.8,66.9,62.9,98,82,62,29.79,29.71,8,1,9,0.00
2013-9-3,76.8,66.9,58.1,63.2,59.3,54.2,93,78,52,29.95,29.72,8,1,8,0.00
2013-9-4,76.0,63.4,54.2,59.8,55.3,52.7,97,77,46,30.08,29.94,6,1,6,0.00
2013-9-5,75.3,65.2,57.7,62.6,55.9,50.5,81,72,59,30.11,30.01,10,2,10,0.00
2013-9-6,70.5,59.2,49.9,53.8,48.4,43.4,87,68,42,30.22,30.11,7,1,7,0.00
2013-9-7,76.0,65.3,57.4,58.7,52.4,47.5,82,64,41,30.13,29.92,7,1,7,0.00
2013-9-8,81.3,69.3,58.9,68.3,60.7,51.1,90,74,60,30.01,29.87,9,1,9,0.02
2013-9-9,69.6,62.8,55.4,63.8,56.8,47.6,92,81,69,30.14,30.00,13,4,13,0.00
2013-9-10,85.5,75.2,65.3,72.3,67.6,63.1,93,78,62,30.16,30.07,10,2,11,0.00
2013-9-11,85.7,75.8,70.1,73.0,68.8,64.3,88,79,62,30.11,29.97,8,2,8,0.00
2013-9-12,84.5,72.6,64.2,71.2,65.6,60.3,90,79,59,29.97,29.71,10,2,10,0.02
2013-9-13,69.5,59.5,48.5,60.7,54.0,45.4,96,83,52,29.92,29.68,9,1,9,0.10
2013-9-14,61.7,50.6,42.5,48.7,44.9,41.4,97,82,58,30.17,29.92,7,0,7,0.00
2013-9-15,69.4,59.4,49.1,57.0,50.6,43.0,81,73,60,30.20,30.07,10,2,10,0.00
2013-9-16,63.5,58.2,54.0,56.4,54.3,51.3,98,87,74,30.23,30.01,9,0,10,0.08
2013-9-17,61.5,52.9,45.8,51.6,44.3,36.5,98,75,45,30.39,30.23,8,2,9,0.00
2013-9-18,65.7,54.6,47.2,51.5,45.9,40.2,83,73,56,30.31,30.16,9,3,10,0.00
2013-9-19,66.2,59.9,54.4,59.2,55.3,50.7,90,85,74,30.18,30.05,6,1,6,0.00
2013-9-20,75.8,65.2,60.1,65.2,60.6,56.9,95,86,67,30.06,29.89,13,3,13,0.00
2013-9-21,62.8,60.1,55.2,61.9,59.3,54.9,99,97,94,29.89,29.65,16,4,18,0.52
2013-9-22,64.6,54.6,48.1,56.2,51.0,43.7,99,88,64,29.95,29.72,9,0,9,0.01
2013-9-23,59.7,50.0,44.8,48.0,44.8,42.0,97,83,61,30.11,29.94,7,0,7,0.00
2013-9-24,67.5,54.3,44.9,53.5,46.2,41.0,90,75,57,30.11,29.97,6,1,6,0.00
2013-9-25,68.0,59.2,53.0,51.9,47.8,42.7,81,66,51,29.98,29.88,7,1,8,0.00
2013-9-26,70.2,60.5,52.6,53.9,47.5,43.8,80,62,43,30.05,29.91,6,1,6,0.00
2013-9-27,67.2,58.9,53.8,55.4,50.8,46.3,95,75,61,30.20,30.05,7,2,8,0.00
2013-9-28,57.7,54.2,51.4,53.6,51.4,47.7,99,90,75,30.29,30.19,7,2,8,0.00
2013-9-29,66.3,57.6,51.4,52.6,48.7,45.1,87,73,56,30.21,30.05,9,2,10,0.00
2013-9-30,71.1,61.7,54.3,55.9,51.6,46.8,78,70,53,30.05,29.97,5,0,7,0.00
2013-10-1,74.1,64.5,58.4,59.8,55.8,53.2,86,74,56,30.06,29.98,9,1,9,0.00
2013-10-2,77.4,66.7,60.7,61.3,57.7,55.4,84,74,55,30.07,30.01,9,2,9,0.00
2013-10-3,76.6,68.6,64.0,64.2,60.2,57.7,84,75,58,30.09,30.01,7,2,9,0.00
2013-10-4,79.3,69.9,64.7,64.8,61.2,58.9,86,74,57,30.07,30.00,5,1,5,0.00
2013-10-5,81.0,71.9,66.1,65.2,61.9,60.3,84,71,52,30.07,29.96,10,2,12,0.00
2013-10-6,81.6,72.6,67.3,64.6,61.0,58.1,85,68,48,29.98,29.81,22,5,23,0.00
2013-10-7,67.2,57.9,47.7,62.9,54.7,42.5,99,89,76,30.02,29.67,24,5,24,1.06
2013-10-8,62.5,51.8,43.9,47.6,43.2,40.1,93,74,52,30.29,30.01,9,1,11,0.00
2013-10-9,53.2,50.3,46.4,47.2,43.6,40.6,95,78,68,30.32,30.23,8,1,10,0.01
2013-10-10,48.3,46.3,44.5,48.0,45.8,43.8,99,98,94,30.24,30.06,10,2,11,0.01
2013-10-11,53.9,50.7,48.0,53.6,50.4,47.7,100,99,99,30.06,30.00,6,1,6,0.12
2013-10-12,57.5,55.4,52.7,57.5,55.3,52.4,100,100,99,30.17,30.03,9,0,9,0.06
2013-10-13,54.3,53.1,52.2,54.3,53.1,52.2,100,100,100,30.31,30.16,8,1,9,0.02
2013-10-14,55.2,51.9,49.2,55.2,51.9,49.2,100,100,100,30.32,30.24,8,1,8,0.00
2013-10-15,59.9,53.6,51.3,55.3,52.8,51.3,100,97,81,30.26,30.07,5,1,5,0.01
2013-10-16,62.7,57.0,53.8,55.5,53.4,48.8,92,88,76,30.07,29.90,8,5,8,0.05
2013-10-17,61.9,58.2,52.6,57.7,54.9,47.3,93,89,86,29.87,29.70,6,2,8,0.01
2013-10-18,57.4,48.9,42.9,47.3,40.9,38.1,90,75,53,29.99,29.77,9,4,9,0.00
2013-10-19,56.5,50.8,48.0,51.1,41.2,37.8,91,70,53,29.97,29.77,7,2,9,0.01
2013-10-20,54.8,47.1,37.8,40.4,35.2,33.1,83,64,49,30.10,29.85,5,2,6,0.03
2013-10-21,61.2,53.6,47.7,43.3,37.3,33.0,72,55,45,30.10,29.93,6,4,6,0.00
2013-10-22,53.8,50.1,41.5,43.7,38.3,30.6,71,64,54,29.93,29.80,6,2,6,0.00
2013-10-23,44.0,39.4,36.7,35.8,32.6,28.1,92,77,58,29.91,29.69,4,2,5,0.00
2013-10-24,38.5,34.0,31.4,32.1,28.4,26.6,90,80,62,30.15,29.91,10,2,11,0.00
2013-10-25,43.3,35.2,30.2,31.3,27.6,24.8,87,74,56,30.33,30.13,12,5,14,0.00
2013-10-26,48.7,37.5,32.3,31.5,26.1,23.5,78,65,40,30.32,29.95,12,3,12,0.00
2013-10-27,52.4,45.4,39.4,33.7,32.2,30.4,76,60,48,30.13,29.96,10,3,10,0.00
2013-10-28,55.9,50.0,44.4,39.2,35.8,31.0,65,58,52,30.24,30.12,4,2,10,0.00
2013-10-29,56.8,49.4,41.3,40.1,38.8,36.2,82,67,53,30.34,30.24,6,3,6,0.00
2013-10-30,60.2,53.5,49.0,50.6,46.8,40.7,85,78,70,30.26,30.14,8,3,8,0.00
2013-10-31,63.7,59.4,55.0,56.0,54.4,50.9,92,84,71,30.17,29.72,11,5,11,0.01
2013-11-1,64.8,61.2,56.5,58.5,50.4,41.3,92,70,43,29.64,29.49,15,6,15,0.08
2013-11-2,56.8,48.9,41.5,43.9,39.8,35.3,79,71,56,29.87,29.62,8,4,8,0.00
2013-11-3,50.1,42.3,35.4,36.4,29.8,20.0,85,64,33,30.42,29.87,6,2,8,0.00
2013-11-4,35.7,34.0,32.1,25.3,21.1,18.2,70,59,50,30.61,30.42,7,3,7,0.00
2013-11-5,45.0,39.7,31.6,39.2,29.4,21.3,83,67,52,30.62,30.46,9,7,9,0.00
2013-11-6,62.7,52.9,44.6,50.7,46.8,41.4,98,81,58,30.46,30.01,13,7,13,0.00
2013-11-7,55.0,49.4,35.9,50.7,44.5,26.7,97,83,69,30.02,29.86,13,5,13,0.01
2013-11-8,42.7,34.1,31.6,26.7,24.0,22.5,73,66,47,30.31,30.00,9,2,10,0.00
2013-11-9,49.4,41.9,31.5,28.4,25.5,22.1,74,53,36,30.32,30.04,18,4,19,0.00
2013-11-10,51.3,42.9,35.0,34.2,28.7,22.6,68,58,38,30.20,29.97,10,5,10,0.01
2013-11-11,54.5,42.7,33.0,27.5,23.5,12.5,77,51,21,30.27,30.02,9,4,10,0.00
2013-11-12,50.5,32.8,24.1,34.3,21.7,13.1,87,66,22,30.37,29.98,8,3,8,0.00
2013-11-13,34.3,27.4,21.6,18.4,17.0,8.2,82,66,46,30.51,30.37,14,4,14,0.00
2013-11-14,53.5,39.6,28.9,15.9,5.4,-1.5,41,24,17,30.39,30.24,8,4,8,0.00
2013-11-15,54.6,49.8,45.3,31.2,14.4,8.7,48,25,16,30.25,30.16,4,2,4,0.00
2013-11-16,54.8,47.2,44.0,47.4,41.4,34.5,98,81,63,30.25,30.17,11,4,11,0.01
2013-11-17,57.0,52.2,46.9,55.2,51.0,46.4,99,96,88,30.17,29.67,13,8,13,0.01
2013-11-18,56.4,49.7,40.6,55.2,32.6,25.4,98,54,32,29.89,29.67,13,7,13,0.17
2013-11-19,39.9,34.5,31.5,26.8,25.0,22.8,73,68,59,30.36,29.89,4,2,13,0.00
2013-11-20,38.7,30.0,25.8,24.3,20.9,19.0,84,70,45,30.55,30.36,10,4,10,0.00
2013-11-21,43.5,35.4,29.0,41.6,31.5,24.4,93,86,79,30.54,30.39,12,7,12,0.00
2013-11-22,58.3,51.7,43.4,51.1,46.7,41.0,91,83,73,30.39,30.03,7,3,7,0.00
2013-11-23,45.2,32.1,22.6,42.7,26.9,18.2,93,82,52,30.13,30.03,5,2,5,0.00
2013-11-24,22.7,18.0,15.2,20.0,7.5,5.0,91,64,46,30.52,30.11,8,3,8,0.00
2013-11-25,29.8,21.2,15.1,8.5,5.8,4.4,64,52,34,30.55,30.38,11,4,11,0.00
2013-11-26,36.1,32.2,28.8,35.3,26.6,8.1,98,82,41,30.37,29.66,8,3,11,0.61
2013-11-27,32.6,26.7,17.2,32.1,25.8,15.0,98,96,90,30.01,29.58,0,0,8,4.96
2013-11-28,28.0,20.8,17.0,24.1,18.0,14.3,91,89,84,30.47,30.03,0,0,0,0.00
2013-11-29,32.9,26.5,22.4,25.7,22.1,19.4,90,83,74,30.71,30.47,0,0,0,0.01
2013-11-30,27.9,23.3,19.7,21.8,19.2,16.5,89,84,77,30.71,30.38,0,0,0,0.08
2013-12-1,44.2,39.0,27.8,30.8,26.0,21.5,77,60,51,30.38,30.07,5,2,5,0.01
2013-12-2,44.3,42.1,39.5,35.5,33.7,31.6,75,72,65,30.07,29.84,7,2,7,0.00
2013-12-3,50.5,44.5,37.7,37.8,35.4,32.6,84,70,60,29.94,29.84,8,2,9,0.00
2013-12-4,50.5,46.9,42.4,46.8,42.4,36.0,96,85,77,30.03,29.94,10,5,10,0.00
2013-12-5,63.0,54.8,49.0,55.4,51.2,47.2,96,88,76,30.02,29.89,10,5,10,0.01
2013-12-6,58.3,45.3,36.3,57.0,44.4,35.7,99,97,90,30.00,29.85,9,4,10,0.64
2013-12-7,36.2,25.7,20.3,35.7,24.5,18.0,98,95,91,30.54,29.95,7,0,10,3.74
2013-12-8,25.0,19.0,17.3,24.3,17.6,15.9,97,94,91,30.56,30.30,0,0,0,0.00
2013-12-9,41.0,27.0,23.4,40.2,26.2,22.4,98,97,91,30.32,30.06,9,1,9,0.26
2013-12-10,30.2,27.2,21.9,28.2,25.0,14.3,97,91,72,30.20,29.96,9,5,9,0.01
2013-12-11,33.4,24.2,18.9,15.2,13.1,10.7,77,64,42,30.39,30.19,10,3,10,0.14
2013-12-12,27.4,19.3,13.8,18.7,8.1,3.3,86,62,43,30.39,30.24,15,5,15,0.28
2013-12-13,36.7,25.9,20.8,17.9,11.0,6.6,66,53,41,30.32,30.22,14,4,16,0.01
2013-12-14,34.1,30.3,27.4,29.6,23.0,15.2,98,78,46,30.32,29.76,11,4,11,0.00
2013-12-15,32.9,28.9,25.7,32.0,26.3,21.3,98,90,80,29.91,29.69,10,4,10,0.08
2013-12-16,28.4,26.5,25.1,23.7,22.7,22.0,93,86,78,30.14,29.92,10,3,10,0.80
2013-12-17,40.5,33.8,25.2,33.6,30.0,23.5,93,86,79,30.13,29.93,5,2,10,0.02
2013-12-18,33.3,27.7,23.7,29.6,20.9,18.5,86,76,64,30.21,29.93,10,4,10,0.00
2013-12-19,51.7,43.0,28.6,30.5,22.5,14.9,68,45,34,30.21,30.10,7,3,10,0.00
2013-12-20,53.6,51.1,48.5,37.5,28.8,23.0,57,42,34,30.10,29.98,5,2,7,0.00
2013-12-21,63.8,57.4,52.3,56.2,47.6,37.5,86,70,57,29.99,29.82,14,5,14,0.00
2013-12-22,61.7,57.6,54.8,58.4,54.4,52.4,94,89,77,29.95,29.76,9,4,14,0.31
2013-12-23,56.6,50.7,42.7,53.7,49.3,34.7,99,95,89,30.05,29.91,9,5,9,0.37
2013-12-24,38.2,17.2,12.5,34.7,9.7,7.1,87,72,61,30.45,30.05,12,4,13,0.00
2013-12-25,25.7,19.5,11.3,13.6,10.9,7.7,86,69,57,30.56,30.34,16,6,21,0.00
2013-12-26,36.9,30.1,21.8,23.1,16.0,10.9,63,56,46,30.35,30.25,13,4,21,0.00
2013-12-27,45.2,34.9,27.4,20.2,15.3,9.5,63,46,28,30.41,30.33,14,3,14,0.00
2013-12-28,53.2,44.2,36.5,23.3,20.5,13.1,54,40,25,30.34,30.10,12,3,13,0.00
2013-12-29,48.9,43.3,38.3,40.5,31.5,9.6,98,72,20,30.10,29.63,16,5,18,1.30
2013-12-30,38.6,33.5,23.3,35.9,30.5,21.1,91,89,86,30.12,29.81,6,3,10,5.76
2013-12-31,33.8,25.6,23.2,22.5,18.8,14.5,90,76,58,30.28,30.11,6,4,10,1.44
2014-1-1,36.8,30.7,27.4,23.8,17.0,15.0,60,56,51,30.38,30.18,8,3,8,0.00
2014-1-2,34.2,28.7,22.6,24.4,22.5,20.8,96,79,58,30.10,29.63,3,2,8,0.00